»·PEaware :: N9298L KLAX-KSNA

N9298L :: KLAX-KSNA

FLIGHT INFORMATION

Flight Status: Arrived
Operator: Privately registered:
United States
More flights under this callsign
Pilot: Brendan O. (14500)
Aircraft: PIPER PA-32 SARATOGA
(PA32)
More flights by this aircraft type
Origin: KLAX Los Angeles Intl
United States
Destination: KSNA John Wayne-Orange Co
United States
More flights between these airports :: More routes between these airports
Route: SLI8 SLI
File this flight plan on PilotEdge
Remarks: Call me out on any mistakes I make!!! I use PE for real-world IFR currency so let me know, thx!
Altitude:
(Current/Filed)
4,000ft
Speed:
(Current/Filed)
145kts
Departed: 28-Feb-18 10:38 AM
Arrived: 28-Feb-18 11:22 AM
Distance/Time
Traveled:
31nm/0:43
Distance/Time
To Go:
Arrived

Flight Plot

Page will automatically refresh every two minutes.


Map Options




Map Legend


Flown Route
Filed Route
Departure Airport
Arrival Airport
Navaid (VOR, NDB)
Fix

Horizontal Profiles

Position Reports

Time Latitude Longitude Heading Altitude Ground
Speed
28-Feb-18 10:30 33.938644 -118.420255 83 110ft 0kts
28-Feb-18 10:31 33.938644 -118.420255 83 110ft 0kts
28-Feb-18 10:32 33.938644 -118.420255 83 110ft 0kts
28-Feb-18 10:33 33.938644 -118.420255 83 110ft 0kts
28-Feb-18 10:34 33.938644 -118.420255 83 110ft 0kts
28-Feb-18 10:35 33.938644 -118.420255 83 110ft 0kts
28-Feb-18 10:36 33.937882 -118.416848 82 116ft 29kts
28-Feb-18 10:37 33.938749 -118.408339 84 120ft 24kts
28-Feb-18 10:38 33.939618 -118.399892 84 110ft 26kts
28-Feb-18 10:39 33.939299 -118.393842 145 101ft 3kts
28-Feb-18 10:40 33.939201 -118.393781 152 101ft 0kts
28-Feb-18 10:41 33.939198 -118.393779 152 101ft 0kts
28-Feb-18 10:42 33.939198 -118.393779 152 101ft 0kts
28-Feb-18 10:43 33.939198 -118.393779 152 101ft 0kts
28-Feb-18 10:44 33.938779 -118.393701 169 101ft 11kts
28-Feb-18 10:45 33.936533 -118.411330 263 413ft 96kts
28-Feb-18 10:46 33.932884 -118.438811 264 1425ft 101kts
28-Feb-18 10:47 33.912076 -118.453006 171 2568ft 104kts
28-Feb-18 10:48 33.882327 -118.447470 169 3580ft 111kts
28-Feb-18 10:49 33.849350 -118.435635 142 3968ft 153kts
28-Feb-18 10:50 33.813421 -118.402450 139 4048ft 168kts
28-Feb-18 10:51 33.776023 -118.366481 142 3978ft 176kts
28-Feb-18 10:52 33.738050 -118.330430 140 4007ft 172kts
28-Feb-18 10:53 33.712732 -118.284238 100 3991ft 171kts
28-Feb-18 10:54 33.705801 -118.244321 99 3973ft 170kts
28-Feb-18 10:55 33.697082 -118.203008 104 3949ft 170kts
28-Feb-18 10:56 33.685246 -118.148112 99 3985ft 168kts
28-Feb-18 10:57 33.674576 -118.093675 102 4015ft 167kts
28-Feb-18 10:58 33.667719 -118.039313 62 3866ft 171kts
28-Feb-18 10:59 33.703898 -118.007759 30 3979ft 163kts
28-Feb-18 11:00 33.743218 -117.980665 31 4007ft 163kts
28-Feb-18 11:01 33.781445 -117.952267 29 4005ft 159kts
28-Feb-18 11:02 33.819144 -117.923832 33 4012ft 160kts
28-Feb-18 11:03 33.857400 -117.896529 30 4007ft 161kts
28-Feb-18 11:04 33.895326 -117.869157 42 4016ft 159kts
28-Feb-18 11:05 33.888925 -117.821956 123 4053ft 158kts
28-Feb-18 11:06 33.862739 -117.780350 125 3981ft 153kts
28-Feb-18 11:07 33.828515 -117.759165 183 3513ft 161kts
28-Feb-18 11:08 33.796131 -117.792260 211 2774ft 153kts
28-Feb-18 11:09 33.757972 -117.816120 210 1923ft 153kts
28-Feb-18 11:10 33.722326 -117.838726 207 1062ft 122kts
28-Feb-18 11:11 33.696123 -117.856311 204 690ft 90kts
28-Feb-18 11:12 33.669616 -117.873140 207 667ft 134kts
28-Feb-18 11:13 33.640276 -117.903078 229 2125ft 149kts
28-Feb-18 11:14 33.617613 -117.939153 260 3049ft 133kts
28-Feb-18 11:15 33.646277 -117.947546 42 3063ft 146kts
28-Feb-18 11:16 33.681179 -117.922336 20 3063ft 148kts
28-Feb-18 11:17 33.722573 -117.904436 18 3112ft 169kts
28-Feb-18 11:18 33.768460 -117.883883 20 2968ft 177kts
28-Feb-18 11:19 33.813893 -117.863702 21 2980ft 176kts
28-Feb-18 11:20 33.858367 -117.844469 19 2979ft 156kts
28-Feb-18 11:21 33.875250 -117.813632 121 2993ft 128kts
28-Feb-18 11:22 33.853207 -117.780517 154 2996ft 125kts
28-Feb-18 11:23 33.817028 -117.782050 186 2980ft 134kts
28-Feb-18 11:24 33.781499 -117.801936 205 2149ft 142kts
28-Feb-18 11:25 33.747997 -117.822688 209 1409ft 120kts
28-Feb-18 11:26 33.721348 -117.840363 207 1051ft 106kts
28-Feb-18 11:27 33.697025 -117.855580 206 599ft 88kts
28-Feb-18 11:28 33.677715 -117.867562 207 58ft 41kts
28-Feb-18 11:29 33.676069 -117.870587 265 58ft 18kts
28-Feb-18 11:30 33.676336 -117.870934 287 58ft 2kts
28-Feb-18 11:31 33.677542 -117.872561 104 58ft 9kts

Navigation Log

Ident Type
Flight plan parsing failed, navigation log unavailable